Terminal Aerodrome Forecast
Issued by NWS

Home | Current Version | Previous Version | Text Only | Print | Product List | Glossary On
Versions: 1 2 3 4 5 6 7 8 9 10 11 12
000
FTAK31 PAFA 220543
TAFAMC
TAF
PAMC 220543Z 2206/2306 33006KT P6SM SKC
     FM221200 00000KT P6SM VCSH SCT040 OVC070
     FM221500 23005KT 6SM -RA BR SCT020 OVC040
     FM230000 25005KT P6SM -SHRA BKN040 BKN080=

USA.gov is the U.S. government's official web portal to all federal, state and local government web resources and services.